Skip Navigation Links
NOAA logo - Click to go to the NOAA homepage
NOAA's National Weather Service
Alaska Aviation Weather Unit
  NWS logo - Click to go to the NWS homepage
Left Navbar Graphic     03 AKDT = 11 GMT

   
NOAA is celebrating 200 years of science, service, and stewardship. Visit the NOAA 200th celebration Web site to learn more.
USA.gov is the U.S. Government's official Web portal to all Federal, state and local government Web resources and services.
Facebook
NWS on Facebook

AAWU Home :: Display TAF Add Bookmark
TAF CYPR 290649Z 2907/2919 13008KT P6SM SCT015 OVC040 TEMPO 2907/2916
     5SM -SHRA BR BKN015 OVC030
    FM291600 10006KT P6SM -RA OVC020 TEMPO 2916/2919 2SM -SHRA BR
     OVC008
     BECMG 2917/2919 VRB03KT
    RMK FCST BASED ON AUTO OBS. NXT FCST BY 291300Z=

METAR CYPR 290500Z AUTO 14005KT 9SM FEW039 OVC065 06/05 A2988 RMK SLP122= SPECI CYPR 290552Z AUTO 13011KT 9SM BKN024 BKN030 BKN043 06/05 A2990 RMK SLP126= SPECI CYPR 290555Z AUTO 13011KT 9SM -RA BKN024 BKN030 BKN043 06/05 A2990 RMK SLP126= METAR CYPR 290600Z AUTO 13010KT 9SM -RA BKN026 BKN032 BKN043 06/05 A2990 RMK SLP127= SPECI CYPR 290612Z AUTO 14007KT 5SM -RA BR FEW020 OVC027 06/05 A2990 RMK SLP128= SPECI CYPR 290626Z AUTO 14007KT 5SM -RA BR BKN022 OVC028 06/05 A2990 RMK SLP127= SPECI CYPR 290630Z AUTO 14007KT 5SM -RA BR SCT020 OVC025 06/05 A2990 RMK SLP127= SPECI CYPR 290631Z AUTO 14008KT 6SM -RA BR OVC022 06/05 A2990 RMK SLP127= SPECI CYPR 290648Z AUTO 14008KT 8SM -RA SCT021 OVC026 06/05 A2990 RMK SLP127= SPECI CYPR 290653Z AUTO 14009KT 9SM SCT021 OVC028 06/05 A2990 RMK SLP127= METAR CYPR 290700Z AUTO 14008KT 9SM SCT021 BKN028 OVC033 06/05 A2990 RMK SLP127= METAR CYPR 290800Z AUTO 14010G15KT 9SM OVC032 06/05 A2990 RMK SLP129= METAR CYPR 290900Z AUTO 15006KT 9SM OVC027 06/04 A2990 RMK SLP126= METAR CYPR 291000Z AUTO 12003KT 110V200 9SM BKN033 BKN055 04/04 A2987 RMK SLP118= METAR CYPR 291100Z AUTO 15003KT 100V170 9SM BKN037 OVC060 05/04 A2985 RMK SLP112=
 Alaska TAF Map

NOAA's National Weather Service
Alaska Aviation Weather Unit
6930 Sand Lake Road
Anchorage, AK 99502-1845
Disclaimer
Credits
Glossary
Privacy Policy
About Us
Career Opportunities
Contact AAWU Internet Services Site last modified: April, 17th 2012